Terminal Aerodrome Forecast
Issued by NWS Caribou, ME

Home | Current Version | Previous Version | Text Only | Print | Product List | Glossary On
Versions: 1 2 3 4 5 6 7 8 9 10 11 12 13 14 15 16 17 18 19
000
FTUS41 KCAR 291100
TAFBGR
TAF
KBGR 291122Z 2912/3012 25007KT P6SM BKN015
     FM291400 26007KT P6SM BKN035
     FM291600 26008KT P6SM SCT050
     FM292000 25008KT P6SM SCT200
     FM300100 21004KT P6SM FEW250=

USA.gov is the U.S. government's official web portal to all federal, state and local government web resources and services.